Time;durP1;ratioP1;P1;durP2;ratioP2;P2;SDS_P1;SDS_P2;PMS_P1;PMS_P2;Temp;Humidity;BMP_temperature;BMP_pressure;BME280_temperature;BME280_humidity;BME280_pressure;Samples;Min_cycle;Max_cycle;Signal;HPM_P1;HPM_P2
2023/04/25 00:00:00;;;;;;;28.13;16.92;;;;;;;;;;5014188;28;20136;-54
2023/04/25 00:02:26;;;;;;;23.85;15.95;;;;;;;;;;5031930;28;20469;-52
2023/04/25 00:04:52;;;;;;;23.83;15.77;;;;;;;;;;5031871;28;20022;-52
2023/04/25 00:07:19;;;;;;;24.77;15.30;;;;;;;;;;5014287;28;20014;-55
2023/04/25 00:09:45;;;;;;;23.27;14.05;;;;;;;;;;5031820;28;20033;-51
2023/04/25 00:12:11;;;;;;;35.40;17.08;;;;;;;;;;5032055;28;20029;-51
2023/04/25 00:14:37;;;;;;;29.92;15.77;;;;;;;;;;5031544;28;20025;-53
2023/04/25 00:17:04;;;;;;;24.25;15.18;;;;;;;;;;5031897;28;20034;-53
2023/04/25 00:19:30;;;;;;;22.85;14.52;;;;;;;;;;5032042;28;20017;-51
2023/04/25 00:21:56;;;;;;;30.67;16.13;;;;;;;;;;5014345;28;20366;-53
2023/04/25 00:24:22;;;;;;;24.70;15.35;;;;;;;;;;5013765;28;20116;-52
2023/04/25 00:26:48;;;;;;;25.42;15.77;;;;;;;;;;5014189;28;20116;-53
2023/04/25 00:29:14;;;;;;;21.67;15.52;;;;;;;;;;5013772;28;20034;-53
2023/04/25 00:31:40;;;;;;;34.50;16.80;;;;;;;;;;5031177;28;20044;-53
2023/04/25 00:34:08;;;;;;;22.73;16.08;;;;;;;;;;5013368;28;20029;-51
2023/04/25 00:36:34;;;;;;;25.98;17.70;;;;;;;;;;5031573;28;20076;-54
2023/04/25 00:39:00;;;;;;;26.30;17.58;;;;;;;;;;5031382;28;20022;-52
2023/04/25 00:41:27;;;;;;;24.95;17.40;;;;;;;;;;5013357;28;20441;-53
2023/04/25 00:43:54;;;;;;;24.15;18.45;;;;;;;;;;5013046;28;20116;-55
2023/04/25 00:46:20;;;;;;;23.67;17.42;;;;;;;;;;5031190;28;20097;-54
2023/04/25 00:48:46;;;;;;;36.22;18.98;;;;;;;;;;5031284;28;20045;-50
2023/04/25 00:51:16;;;;;;;26.77;17.80;;;;;;;;;;5030977;28;20017;-55
2023/04/25 00:53:42;;;;;;;26.92;18.17;;;;;;;;;;5031060;28;20053;-55
2023/04/25 00:56:08;;;;;;;26.98;17.42;;;;;;;;;;5031167;28;20033;-53
2023/04/25 00:58:35;;;;;;;24.35;17.25;;;;;;;;;;5031019;28;20544;-51
2023/04/25 01:01:01;;;;;;;29.05;19.52;;;;;;;;;;5031192;28;20041;-49
2023/04/25 01:03:28;;;;;;;24.50;18.02;;;;;;;;;;5013052;28;20442;-49
2023/04/25 01:05:56;;;;;;;28.83;17.70;;;;;;;;;;5013384;28;20045;-52
2023/04/25 01:08:25;;;;;;;24.38;18.42;;;;;;;;;;5034282;28;20029;-55
2023/04/25 01:10:51;;;;;;;23.83;17.70;;;;;;;;;;5017374;28;20475;-54
2023/04/25 01:13:17;;;;;;;26.40;17.40;;;;;;;;;;5034575;28;20109;-50
2023/04/25 01:15:43;;;;;;;23.38;17.52;;;;;;;;;;5034634;28;20040;-50
2023/04/25 01:18:10;;;;;;;26.23;19.58;;;;;;;;;;5034900;28;20025;-52
2023/04/25 01:20:37;;;;;;;28.15;20.73;;;;;;;;;;5034741;28;20035;-50
2023/04/25 01:23:03;;;;;;;25.30;18.58;;;;;;;;;;5034161;28;20022;-49
2023/04/25 01:25:30;;;;;;;26.55;20.10;;;;;;;;;;5034202;28;20029;-52
2023/04/25 01:27:56;;;;;;;23.63;19.17;;;;;;;;;;5034271;28;20446;-54
2023/04/25 01:30:23;;;;;;;25.90;19.55;;;;;;;;;;5034491;28;20029;-49
2023/04/25 01:32:49;;;;;;;25.80;21.73;;;;;;;;;;5034627;28;20029;-54
2023/04/25 01:35:15;;;;;;;26.98;22.15;;;;;;;;;;5034467;28;20033;-57
2023/04/25 01:37:42;;;;;;;28.30;22.98;;;;;;;;;;5033422;28;20106;-55
2023/04/25 01:40:10;;;;;;;26.05;23.30;;;;;;;;;;5033185;28;20029;-55
2023/04/25 01:42:37;;;;;;;26.15;23.35;;;;;;;;;;5034624;28;20021;-52
2023/04/25 01:45:03;;;;;;;28.42;25.88;;;;;;;;;;5034250;28;20032;-54
2023/04/25 01:47:29;;;;;;;29.85;26.95;;;;;;;;;;5034529;28;20056;-51
2023/04/25 01:49:55;;;;;;;30.17;26.98;;;;;;;;;;5033038;28;20053;-51
2023/04/25 01:52:21;;;;;;;31.30;28.08;;;;;;;;;;5034384;28;20022;-50
2023/04/25 01:54:47;;;;;;;30.30;27.27;;;;;;;;;;5026421;28;20417;-53
2023/04/25 01:57:14;;;;;;;29.75;26.85;;;;;;;;;;5033978;28;20032;-52
2023/04/25 01:59:40;;;;;;;29.02;26.23;;;;;;;;;;5030690;28;20037;-51
2023/04/25 02:02:06;;;;;;;28.83;25.48;;;;;;;;;;5034276;28;20018;-50
2023/04/25 02:04:32;;;;;;;27.60;24.83;;;;;;;;;;5033683;28;20026;-52
2023/04/25 02:06:59;;;;;;;29.08;25.80;;;;;;;;;;5033952;28;20022;-54
2023/04/25 02:09:25;;;;;;;27.40;24.80;;;;;;;;;;5033994;28;20051;-59
2023/04/25 02:11:51;;;;;;;28.77;25.00;;;;;;;;;;5033784;28;20045;-51
2023/04/25 02:14:17;;;;;;;28.23;25.23;;;;;;;;;;5033499;28;20045;-52
2023/04/25 02:16:46;;;;;;;29.48;26.58;;;;;;;;;;5033705;28;20029;-49
2023/04/25 02:19:12;;;;;;;29.95;26.23;;;;;;;;;;5033115;28;20048;-51
2023/04/25 02:21:38;;;;;;;28.77;25.83;;;;;;;;;;5033768;28;20029;-51
2023/04/25 02:24:04;;;;;;;30.15;25.40;;;;;;;;;;5033305;28;20072;-51
2023/04/25 02:26:30;;;;;;;27.92;25.05;;;;;;;;;;5025477;28;20017;-52
2023/04/25 02:28:57;;;;;;;28.75;25.67;;;;;;;;;;5033499;28;20094;-48
2023/04/25 02:31:23;;;;;;;28.17;25.25;;;;;;;;;;5033503;28;20394;-50
2023/04/25 02:33:49;;;;;;;31.08;23.98;;;;;;;;;;5033065;28;20100;-49
2023/04/25 02:36:15;;;;;;;33.33;25.20;;;;;;;;;;5031955;28;20145;-50
2023/04/25 02:38:41;;;;;;;29.90;24.55;;;;;;;;;;5033261;28;20105;-51
2023/04/25 02:41:07;;;;;;;38.95;27.45;;;;;;;;;;5031894;28;20061;-51
2023/04/25 02:43:33;;;;;;;33.78;26.27;;;;;;;;;;5033014;28;20104;-52
2023/04/25 02:45:59;;;;;;;27.90;25.08;;;;;;;;;;5031955;28;20529;-51
2023/04/25 02:48:25;;;;;;;29.17;24.02;;;;;;;;;;5032107;28;20053;-52
2023/04/25 02:50:51;;;;;;;32.45;25.52;;;;;;;;;;5033094;28;20061;-55
2023/04/25 02:53:17;;;;;;;28.02;24.92;;;;;;;;;;5031564;28;20022;-49
2023/04/25 02:55:43;;;;;;;29.48;25.50;;;;;;;;;;5032924;28;20031;-52
2023/04/25 02:58:08;;;;;;;28.10;24.98;;;;;;;;;;5032932;28;20482;-54
2023/04/25 03:00:34;;;;;;;27.05;24.25;;;;;;;;;;5032818;28;20041;-56
2023/04/25 03:03:00;;;;;;;30.52;23.88;;;;;;;;;;5032934;28;20025;-54
2023/04/25 03:05:26;;;;;;;33.53;25.65;;;;;;;;;;5032747;28;20029;-51
2023/04/25 03:07:52;;;;;;;30.88;24.88;;;;;;;;;;5032988;28;20083;-51
2023/04/25 03:10:18;;;;;;;35.53;24.60;;;;;;;;;;5032542;28;20026;-51
2023/04/25 03:12:44;;;;;;;28.80;24.00;;;;;;;;;;5031510;28;20026;-54
2023/04/25 03:15:10;;;;;;;29.98;24.70;;;;;;;;;;5032373;28;20394;-53
2023/04/25 03:17:36;;;;;;;32.15;23.70;;;;;;;;;;5032596;28;20033;-53
2023/04/25 03:20:03;;;;;;;27.45;23.50;;;;;;;;;;5032416;28;20029;-51
2023/04/25 03:22:29;;;;;;;28.02;23.98;;;;;;;;;;5032695;28;20025;-52
2023/04/25 03:24:55;;;;;;;28.38;23.20;;;;;;;;;;5032357;28;20055;-55
2023/04/25 03:27:21;;;;;;;32.28;23.83;;;;;;;;;;5031330;28;20021;-56
2023/04/25 03:29:47;;;;;;;27.25;23.45;;;;;;;;;;5030794;28;20466;-58
2023/04/25 03:32:13;;;;;;;29.63;23.88;;;;;;;;;;5031958;28;20116;-51
2023/04/25 03:34:39;;;;;;;27.42;23.27;;;;;;;;;;5032323;28;20064;-50
2023/04/25 03:37:05;;;;;;;26.63;23.73;;;;;;;;;;5032399;28;20026;-53
2023/04/25 03:39:31;;;;;;;29.35;24.10;;;;;;;;;;5032250;28;20032;-51
2023/04/25 03:41:57;;;;;;;29.15;25.38;;;;;;;;;;5032879;28;20474;-55
2023/04/25 03:44:24;;;;;;;36.33;25.95;;;;;;;;;;5032757;28;20021;-51
2023/04/25 03:46:50;;;;;;;29.05;23.77;;;;;;;;;;5031712;28;20025;-54
2023/04/25 03:49:16;;;;;;;33.33;26.30;;;;;;;;;;5032196;28;20139;-56
2023/04/25 03:51:42;;;;;;;28.88;25.17;;;;;;;;;;5032007;28;20028;-56
2023/04/25 03:54:08;;;;;;;30.27;24.90;;;;;;;;;;5030606;28;20044;-51
2023/04/25 03:56:34;;;;;;;30.67;24.63;;;;;;;;;;5032221;28;20029;-51
2023/04/25 03:59:00;;;;;;;33.05;24.77;;;;;;;;;;5031906;28;20028;-50
2023/04/25 04:01:26;;;;;;;33.53;24.73;;;;;;;;;;5032036;28;20026;-51
2023/04/25 04:03:52;;;;;;;27.83;23.75;;;;;;;;;;5031816;28;20386;-51
2023/04/25 04:06:20;;;;;;;27.85;24.65;;;;;;;;;;5031829;28;20364;-50
2023/04/25 04:08:46;;;;;;;34.72;26.50;;;;;;;;;;5031810;28;20022;-52
2023/04/25 04:11:12;;;;;;;32.40;26.13;;;;;;;;;;5031707;28;20022;-56
2023/04/25 04:13:38;;;;;;;29.10;25.45;;;;;;;;;;5031624;28;20111;-53
2023/04/25 04:16:05;;;;;;;33.08;25.25;;;;;;;;;;5031728;28;20033;-51
2023/04/25 04:18:31;;;;;;;31.40;25.75;;;;;;;;;;5031800;28;20025;-54
2023/04/25 04:20:58;;;;;;;31.95;27.15;;;;;;;;;;5031639;28;20026;-52
2023/04/25 04:23:24;;;;;;;37.08;24.95;;;;;;;;;;5031348;28;20558;-58
2023/04/25 04:25:50;;;;;;;29.60;26.60;;;;;;;;;;5031617;28;20033;-56
2023/04/25 04:28:16;;;;;;;31.98;25.80;;;;;;;;;;5031745;28;20393;-56
2023/04/25 04:30:46;;;;;;;28.45;25.35;;;;;;;;;;5031507;28;20025;-55
2023/04/25 04:33:12;;;;;;;30.63;24.35;;;;;;;;;;5031709;28;20017;-50
2023/04/25 04:35:38;;;;;;;29.02;25.70;;;;;;;;;;5030601;28;20398;-51
2023/04/25 04:38:04;;;;;;;35.72;26.23;;;;;;;;;;5031559;28;20033;-57
2023/04/25 04:40:31;;;;;;;31.38;25.08;;;;;;;;;;5031383;28;20038;-56
2023/04/25 04:42:57;;;;;;;31.45;24.77;;;;;;;;;;5032949;28;20371;-52
2023/04/25 04:45:23;;;;;;;31.75;23.83;;;;;;;;;;5035231;28;20026;-55
2023/04/25 04:47:49;;;;;;;29.52;24.25;;;;;;;;;;5035345;28;20028;-51
2023/04/25 04:50:16;;;;;;;28.35;24.30;;;;;;;;;;5035226;28;20021;-50
2023/04/25 04:52:42;;;;;;;29.40;26.08;;;;;;;;;;5035291;28;20501;-50
2023/04/25 04:55:08;;;;;;;30.58;24.27;;;;;;;;;;5035084;28;20033;-51
2023/04/25 04:57:35;;;;;;;35.42;24.00;;;;;;;;;;5035123;28;20033;-50
2023/04/25 05:00:04;;;;;;;30.77;23.35;;;;;;;;;;5062325;23;20045;-58
2023/04/25 05:02:30;;;;;;;26.95;23.42;;;;;;;;;;5054606;28;20397;-59
2023/04/25 05:04:57;;;;;;;37.15;26.15;;;;;;;;;;5054019;28;20021;-58
2023/04/25 05:07:23;;;;;;;32.90;22.42;;;;;;;;;;5053387;28;20021;-54
2023/04/25 05:09:49;;;;;;;28.98;22.05;;;;;;;;;;5052861;28;20163;-54
2023/04/25 05:12:15;;;;;;;33.78;22.85;;;;;;;;;;5054577;28;20100;-60
2023/04/25 05:14:40;;;;;;;30.95;22.05;;;;;;;;;;5051860;28;20029;-58
2023/04/25 05:17:08;;;;;;;28.15;22.67;;;;;;;;;;5045692;28;20112;-57
2023/04/25 05:19:34;;;;;;;29.77;21.95;;;;;;;;;;5054403;28;20032;-57
2023/04/25 05:22:00;;;;;;;26.35;21.52;;;;;;;;;;5036545;28;20029;-60
2023/04/25 05:24:26;;;;;;;31.25;21.92;;;;;;;;;;5053496;28;20028;-60
2023/04/25 05:26:52;;;;;;;33.13;22.58;;;;;;;;;;5054118;28;20094;-61
2023/04/25 05:29:18;;;;;;;26.13;21.70;;;;;;;;;;5054214;28;20104;-55
2023/04/25 05:31:45;;;;;;;29.77;21.40;;;;;;;;;;5052401;28;20057;-61
2023/04/25 05:34:11;;;;;;;27.08;21.50;;;;;;;;;;5053705;28;20096;-54
2023/04/25 05:36:37;;;;;;;26.65;21.02;;;;;;;;;;5054070;28;20527;-57
2023/04/25 05:39:04;;;;;;;23.25;19.30;;;;;;;;;;5053866;28;20021;-58
2023/04/25 05:41:30;;;;;;;27.92;21.48;;;;;;;;;;5054008;28;20028;-55
2023/04/25 05:43:56;;;;;;;33.10;21.23;;;;;;;;;;5053838;28;20025;-61
2023/04/25 05:46:22;;;;;;;25.33;20.70;;;;;;;;;;5052744;28;20194;-57
2023/04/25 05:48:48;;;;;;;27.35;19.23;;;;;;;;;;5053781;28;20021;-61
2023/04/25 05:51:14;;;;;;;24.88;20.13;;;;;;;;;;5053436;28;20025;-58
2023/04/25 05:53:40;;;;;;;25.88;19.13;;;;;;;;;;5053249;28;20021;-60
2023/04/25 05:56:06;;;;;;;25.52;20.52;;;;;;;;;;5054907;28;20139;-59
2023/04/25 05:58:32;;;;;;;32.45;20.25;;;;;;;;;;5053710;28;20493;-62
2023/04/25 06:00:58;;;;;;;26.38;18.35;;;;;;;;;;5053286;28;20041;-59
2023/04/25 06:03:24;;;;;;;30.50;17.88;;;;;;;;;;5034973;28;20024;-62
2023/04/25 06:05:50;;;;;;;21.13;17.00;;;;;;;;;;5053142;28;20524;-59
2023/04/25 06:08:16;;;;;;;25.42;16.48;;;;;;;;;;5034869;28;20071;-61
2023/04/25 06:10:42;;;;;;;28.98;17.67;;;;;;;;;;5053175;28;20036;-61
2023/04/25 06:13:08;;;;;;;24.10;15.90;;;;;;;;;;5052667;28;20033;-58
2023/04/25 06:15:34;;;;;;;25.92;16.75;;;;;;;;;;5053337;28;20528;-55
2023/04/25 06:18:00;;;;;;;24.05;14.18;;;;;;;;;;5034251;28;20043;-58
2023/04/25 06:20:26;;;;;;;28.85;14.30;;;;;;;;;;5052766;28;20430;-61
2023/04/25 06:22:52;;;;;;;23.17;13.20;;;;;;;;;;5043851;28;20159;-60
2023/04/25 06:25:18;;;;;;;24.35;13.85;;;;;;;;;;5032738;28;20508;-56
2023/04/25 06:27:44;;;;;;;23.77;13.73;;;;;;;;;;5046579;28;20029;-59
2023/04/25 06:30:11;;;;;;;20.67;11.20;;;;;;;;;;5034784;28;20033;-57
2023/04/25 06:32:38;;;;;;;25.15;11.43;;;;;;;;;;5035198;28;20033;-54
2023/04/25 06:35:04;;;;;;;23.98;11.35;;;;;;;;;;5049057;28;20029;-58
2023/04/25 06:37:30;;;;;;;23.85;11.20;;;;;;;;;;5014665;28;20112;-60
2023/04/25 06:39:56;;;;;;;22.15;10.93;;;;;;;;;;5032684;28;20117;-57
2023/04/25 06:42:22;;;;;;;23.20;12.10;;;;;;;;;;5014281;28;20410;-53
2023/04/25 06:44:48;;;;;;;23.13;11.10;;;;;;;;;;5031816;28;20120;-59
2023/04/25 06:47:14;;;;;;;17.35;10.38;;;;;;;;;;5014598;28;20033;-59
2023/04/25 06:49:40;;;;;;;20.40;10.52;;;;;;;;;;5014478;28;20108;-58
2023/04/25 06:52:06;;;;;;;25.92;11.15;;;;;;;;;;5017890;28;20438;-62
2023/04/25 06:54:32;;;;;;;23.17;11.55;;;;;;;;;;5033459;28;20068;-61
2023/04/25 06:57:00;;;;;;;18.90;9.60;;;;;;;;;;5052670;28;20025;-57
2023/04/25 06:59:26;;;;;;;21.85;10.50;;;;;;;;;;5052005;28;20024;-63
2023/04/25 07:01:52;;;;;;;23.40;10.65;;;;;;;;;;5034264;28;20041;-65
2023/04/25 07:04:19;;;;;;;20.08;10.70;;;;;;;;;;5051779;28;20047;-62
2023/04/25 07:06:47;;;;;;;25.17;10.95;;;;;;;;;;5052337;28;20087;-63
2023/04/25 07:09:13;;;;;;;24.55;11.50;;;;;;;;;;5052286;28;20043;-62
2023/04/25 07:11:39;;;;;;;22.05;11.45;;;;;;;;;;5034127;28;20497;-63
2023/04/25 07:14:05;;;;;;;23.75;10.90;;;;;;;;;;5034119;28;20048;-63
2023/04/25 07:16:31;;;;;;;21.63;10.57;;;;;;;;;;5037758;28;20033;-63
2023/04/25 07:18:57;;;;;;;23.08;10.23;;;;;;;;;;5051585;28;20025;-62
2023/04/25 07:21:23;;;;;;;19.02;10.45;;;;;;;;;;5042862;28;20385;-62
2023/04/25 07:23:49;;;;;;;20.10;9.65;;;;;;;;;;5051521;28;20039;-62
2023/04/25 07:26:15;;;;;;;20.20;9.95;;;;;;;;;;5047973;28;20039;-62
2023/04/25 07:28:41;;;;;;;20.83;10.23;;;;;;;;;;5051608;28;20051;-63
2023/04/25 07:31:07;;;;;;;19.15;9.50;;;;;;;;;;5051828;28;20107;-63
2023/04/25 07:33:34;;;;;;;20.27;9.68;;;;;;;;;;5051358;28;20465;-63
2023/04/25 07:36:00;;;;;;;27.88;11.05;;;;;;;;;;5051394;28;20029;-63
2023/04/25 07:38:26;;;;;;;21.88;10.55;;;;;;;;;;5050829;28;20025;-64
2023/04/25 07:40:52;;;;;;;21.42;10.32;;;;;;;;;;5051779;28;20062;-64
2023/04/25 07:43:18;;;;;;;18.15;9.50;;;;;;;;;;5051435;28;20020;-64
2023/04/25 07:45:44;;;;;;;20.63;9.50;;;;;;;;;;5051724;28;20017;-64
2023/04/25 07:48:10;;;;;;;20.80;9.68;;;;;;;;;;5051397;28;20113;-63
2023/04/25 07:50:36;;;;;;;22.65;9.68;;;;;;;;;;5051234;28;20075;-64
2023/04/25 07:53:03;;;;;;;23.27;9.48;;;;;;;;;;5051162;28;20029;-64
2023/04/25 07:55:29;;;;;;;19.85;10.18;;;;;;;;;;5051505;28;20025;-65
2023/04/25 07:57:55;;;;;;;23.80;10.65;;;;;;;;;;5033403;28;20032;-64
2023/04/25 08:00:21;;;;;;;18.80;10.00;;;;;;;;;;5049843;28;20552;-65
2023/04/25 08:02:47;;;;;;;22.38;9.30;;;;;;;;;;5047962;28;20266;-65
2023/04/25 08:05:14;;;;;;;23.35;10.30;;;;;;;;;;5047472;28;20052;-65
2023/04/25 08:07:41;;;;;;;18.42;10.18;;;;;;;;;;5048439;28;20442;-65
2023/04/25 08:10:08;;;;;;;19.60;10.63;;;;;;;;;;5049292;28;20048;-65
2023/04/25 08:12:34;;;;;;;22.80;10.02;;;;;;;;;;5049101;28;20505;-64
2023/04/25 08:15:00;;;;;;;21.88;9.75;;;;;;;;;;5049042;28;20389;-65
2023/04/25 08:17:26;;;;;;;17.80;9.68;;;;;;;;;;5048075;28;20021;-64
2023/04/25 08:19:52;;;;;;;20.70;10.85;;;;;;;;;;5050313;28;20100;-63
2023/04/25 08:22:18;;;;;;;20.63;10.52;;;;;;;;;;5032711;28;20047;-65
2023/04/25 08:24:44;;;;;;;23.67;10.68;;;;;;;;;;5050544;28;20470;-62
2023/04/25 08:27:11;;;;;;;28.70;10.48;;;;;;;;;;5050918;28;20043;-65
2023/04/25 08:29:37;;;;;;;22.02;10.00;;;;;;;;;;5032862;28;20025;-62
2023/04/25 08:32:03;;;;;;;18.77;9.32;;;;;;;;;;5051350;28;20064;-61
2023/04/25 08:34:29;;;;;;;18.90;9.40;;;;;;;;;;5050731;28;20469;-61
2023/04/25 08:36:55;;;;;;;21.25;9.70;;;;;;;;;;5033292;28;20060;-62
2023/04/25 08:39:21;;;;;;;20.88;9.77;;;;;;;;;;5029509;28;20116;-60
2023/04/25 08:41:47;;;;;;;20.63;9.77;;;;;;;;;;5041715;28;20033;-63
2023/04/25 08:44:13;;;;;;;22.70;10.15;;;;;;;;;;5051069;28;20025;-63
2023/04/25 08:46:42;;;;;;;18.98;9.60;;;;;;;;;;5051560;28;20096;-62
2023/04/25 08:49:11;;;;;;;19.23;9.82;;;;;;;;;;5051445;28;20071;-66
2023/04/25 08:51:46;;;;;;;21.58;9.48;;;;;;;;;;5050655;28;20029;-63
2023/04/25 08:54:13;;;;;;;21.15;9.95;;;;;;;;;;5044947;28;20044;-62
2023/04/25 08:56:39;;;;;;;19.33;10.50;;;;;;;;;;5063181;28;20068;-57
2023/04/25 08:59:07;;;;;;;18.95;10.85;;;;;;;;;;5034027;28;20500;-62
2023/04/25 09:01:34;;;;;;;16.45;9.13;;;;;;;;;;5050758;28;20021;-62
2023/04/25 09:04:00;;;;;;;18.35;9.60;;;;;;;;;;5050781;28;20029;-63
2023/04/25 09:06:27;;;;;;;18.60;9.93;;;;;;;;;;5050604;28;20025;-60
2023/04/25 09:08:53;;;;;;;17.63;9.60;;;;;;;;;;5050473;28;20477;-64
2023/04/25 09:11:19;;;;;;;20.02;9.80;;;;;;;;;;5050546;28;20029;-63
2023/04/25 09:13:46;;;;;;;19.02;9.75;;;;;;;;;;5050723;28;20025;-61
2023/04/25 09:16:14;;;;;;;16.40;9.52;;;;;;;;;;5050553;28;20021;-61
2023/04/25 09:18:40;;;;;;;19.17;9.10;;;;;;;;;;5050659;28;20028;-63
2023/04/25 09:21:07;;;;;;;16.10;9.07;;;;;;;;;;5050435;28;20028;-61
2023/04/25 09:23:41;;;;;;;17.45;9.50;;;;;;;;;;5050281;28;20675;-62
2023/04/25 09:26:07;;;;;;;17.45;9.57;;;;;;;;;;5049881;28;20024;-60
2023/04/25 09:28:34;;;;;;;18.35;10.32;;;;;;;;;;5050630;28;20048;-61
2023/04/25 09:31:01;;;;;;;23.17;9.45;;;;;;;;;;5035804;28;20048;-61
2023/04/25 09:33:31;;;;;;;18.70;9.60;;;;;;;;;;5053578;28;20533;-60
2023/04/25 09:36:03;;;;;;;17.73;8.82;;;;;;;;;;5053089;28;20379;-61
2023/04/25 09:38:30;;;;;;;17.40;8.80;;;;;;;;;;5035825;28;20024;-63
2023/04/25 09:40:56;;;;;;;18.05;9.52;;;;;;;;;;5053866;28;20036;-62
2023/04/25 09:43:23;;;;;;;15.25;9.02;;;;;;;;;;5053723;28;20100;-62
2023/04/25 09:45:51;;;;;;;19.15;9.80;;;;;;;;;;5053253;28;20037;-64
2023/04/25 09:48:18;;;;;;;28.20;10.27;;;;;;;;;;5053719;28;20191;-61
2023/04/25 09:50:45;;;;;;;16.08;9.95;;;;;;;;;;5035627;28;20052;-62
2023/04/25 09:53:11;;;;;;;17.23;9.30;;;;;;;;;;5053614;28;20025;-64
2023/04/25 09:55:38;;;;;;;20.55;9.75;;;;;;;;;;5036047;28;20025;-65
2023/04/25 09:58:08;;;;;;;16.27;9.48;;;;;;;;;;5054245;28;20021;-62
2023/04/25 10:00:35;;;;;;;15.07;8.70;;;;;;;;;;5054417;28;20116;-63
2023/04/25 10:03:05;;;;;;;19.30;10.52;;;;;;;;;;5055216;28;20037;-62
2023/04/25 10:05:32;;;;;;;17.58;9.32;;;;;;;;;;5053725;28;20028;-61
2023/04/25 10:08:00;;;;;;;15.32;8.52;;;;;;;;;;5035569;28;20017;-63
2023/04/25 10:10:27;;;;;;;15.60;9.30;;;;;;;;;;5035605;28;20097;-63
2023/04/25 10:12:54;;;;;;;17.45;9.82;;;;;;;;;;5053119;28;20021;-61
2023/04/25 10:15:20;;;;;;;16.50;10.20;;;;;;;;;;5052650;28;20381;-64
2023/04/25 10:17:46;;;;;;;18.55;9.18;;;;;;;;;;5053091;28;20139;-63
2023/04/25 10:20:13;;;;;;;17.23;9.50;;;;;;;;;;5052662;28;20021;-63
2023/04/25 10:22:42;;;;;;;18.48;9.85;;;;;;;;;;5034692;28;20481;-62
2023/04/25 10:25:09;;;;;;;16.05;9.70;;;;;;;;;;5052511;28;20029;-63
2023/04/25 10:27:35;;;;;;;16.65;9.45;;;;;;;;;;5035007;28;20503;-62
2023/04/25 10:30:04;;;;;;;18.00;9.63;;;;;;;;;;5050074;28;20025;-64
2023/04/25 10:32:32;;;;;;;19.40;9.80;;;;;;;;;;5051955;28;20017;-63
2023/04/25 10:34:58;;;;;;;17.80;10.43;;;;;;;;;;5051861;28;20017;-60
2023/04/25 10:37:24;;;;;;;18.30;9.90;;;;;;;;;;5052323;28;20107;-61
2023/04/25 10:39:53;;;;;;;17.77;10.25;;;;;;;;;;5051570;28;20079;-63
2023/04/25 10:42:19;;;;;;;18.80;9.25;;;;;;;;;;5052331;28;20393;-63
2023/04/25 10:45:02;;;;;;;17.17;9.60;;;;;;;;;;5051698;28;20549;-65
2023/04/25 10:47:36;;;;;;;15.38;10.07;;;;;;;;;;5048386;28;20025;-61
2023/04/25 10:50:06;;;;;;;20.15;11.50;;;;;;;;;;5051905;28;20118;-61
2023/04/25 10:52:33;;;;;;;16.48;9.13;;;;;;;;;;5052608;28;20025;-62
2023/04/25 10:55:00;;;;;;;16.48;8.82;;;;;;;;;;5052062;28;20107;-63
2023/04/25 10:57:38;;;;;;;17.63;8.75;;;;;;;;;;5052149;28;20025;-64
2023/04/25 11:00:18;;;;;;;17.23;9.27;;;;;;;;;;5066147;23;20092;-61
2023/04/25 11:02:46;;;;;;;17.80;9.13;;;;;;;;;;5012275;28;20041;-60
2023/04/25 11:05:18;;;;;;;15.65;9.18;;;;;;;;;;5009228;28;20030;-64
2023/04/25 11:07:50;;;;;;;17.27;9.50;;;;;;;;;;5013004;28;20032;-60
2023/04/25 11:10:16;;;;;;;20.17;9.23;;;;;;;;;;5013158;28;20026;-61
2023/04/25 11:12:42;;;;;;;17.90;9.68;;;;;;;;;;5012388;28;20025;-60
2023/04/25 11:15:08;;;;;;;18.08;9.88;;;;;;;;;;5010183;28;20025;-62
2023/04/25 11:17:34;;;;;;;18.65;9.77;;;;;;;;;;5012061;28;20087;-62
2023/04/25 11:20:01;;;;;;;18.02;9.40;;;;;;;;;;5007354;28;20049;-63
2023/04/25 11:22:27;;;;;;;18.77;9.52;;;;;;;;;;5012732;28;20378;-60
2023/04/25 11:24:54;;;;;;;17.48;9.60;;;;;;;;;;4995066;28;20176;-60
2023/04/25 11:27:21;;;;;;;16.30;9.50;;;;;;;;;;5012374;28;20466;-63
2023/04/25 11:29:47;;;;;;;17.13;9.43;;;;;;;;;;5011612;28;20024;-64
2023/04/25 11:32:15;;;;;;;17.08;9.38;;;;;;;;;;5011767;28;20025;-63
2023/04/25 11:34:43;;;;;;;17.30;9.45;;;;;;;;;;5011645;28;20638;-63
2023/04/25 11:37:11;;;;;;;17.40;9.30;;;;;;;;;;5011835;28;20051;-65
2023/04/25 11:39:37;;;;;;;17.48;9.68;;;;;;;;;;5012133;28;20068;-64
2023/04/25 11:42:05;;;;;;;17.65;10.20;;;;;;;;;;5011885;28;20041;-64
2023/04/25 11:44:31;;;;;;;18.35;9.70;;;;;;;;;;5011452;28;20022;-64
2023/04/25 11:46:57;;;;;;;19.52;9.52;;;;;;;;;;5011229;28;20021;-65
2023/04/25 11:49:24;;;;;;;16.85;9.57;;;;;;;;;;5011638;28;20049;-63
2023/04/25 11:51:51;;;;;;;15.60;8.90;;;;;;;;;;5011104;28;20451;-58
2023/04/25 11:54:17;;;;;;;16.30;9.07;;;;;;;;;;5012043;28;20026;-62
2023/04/25 11:56:43;;;;;;;16.77;9.43;;;;;;;;;;5012282;28;20083;-60
2023/04/25 11:59:10;;;;;;;16.98;9.43;;;;;;;;;;5003562;28;20033;-59
2023/04/25 12:01:37;;;;;;;15.40;9.52;;;;;;;;;;5011607;28;20025;-56
2023/04/25 12:04:13;;;;;;;19.85;9.20;;;;;;;;;;5011347;28;20022;-61
2023/04/25 12:06:40;;;;;;;18.55;10.25;;;;;;;;;;5011651;28;20026;-61
2023/04/25 12:09:08;;;;;;;16.90;9.82;;;;;;;;;;5012139;28;20038;-60
2023/04/25 12:11:41;;;;;;;15.10;9.60;;;;;;;;;;5011696;28;20357;-62
2023/04/25 12:14:07;;;;;;;15.85;9.43;;;;;;;;;;5011861;28;20028;-61
2023/04/25 12:16:46;;;;;;;15.77;9.65;;;;;;;;;;5012245;28;20030;-62
2023/04/25 12:19:15;;;;;;;14.48;8.77;;;;;;;;;;5013443;28;20386;-60
2023/04/25 12:21:41;;;;;;;15.82;9.00;;;;;;;;;;5012111;28;20030;-62
2023/04/25 12:24:12;;;;;;;16.52;9.27;;;;;;;;;;5011265;28;20029;-60
2023/04/25 12:26:50;;;;;;;16.70;9.40;;;;;;;;;;5011425;28;20461;-63
2023/04/25 12:29:20;;;;;;;17.27;9.68;;;;;;;;;;5011390;28;20084;-59
2023/04/25 12:31:46;;;;;;;16.67;9.35;;;;;;;;;;4993837;28;20117;-61
2023/04/25 12:34:12;;;;;;;17.15;9.30;;;;;;;;;;5011506;28;20026;-57
2023/04/25 12:36:39;;;;;;;18.38;9.32;;;;;;;;;;5011535;28;20077;-60
2023/04/25 12:39:05;;;;;;;17.08;9.30;;;;;;;;;;5011735;28;20045;-59
2023/04/25 12:41:31;;;;;;;29.20;10.48;;;;;;;;;;4996204;28;20072;-57
2023/04/25 12:43:57;;;;;;;15.55;9.00;;;;;;;;;;4995459;28;20029;-61
2023/04/25 12:46:23;;;;;;;16.42;9.23;;;;;;;;;;5011366;28;20034;-61
2023/04/25 12:48:49;;;;;;;16.63;9.40;;;;;;;;;;5005994;28;20389;-60
2023/04/25 12:51:15;;;;;;;19.38;9.27;;;;;;;;;;4993702;28;20029;-60
2023/04/25 12:53:41;;;;;;;18.00;9.90;;;;;;;;;;4998942;28;20025;-60
2023/04/25 12:56:11;;;;;;;16.20;9.40;;;;;;;;;;5031846;28;20036;-64
2023/04/25 12:58:37;;;;;;;15.95;9.70;;;;;;;;;;5032998;28;20116;-63
2023/04/25 13:01:03;;;;;;;16.67;9.88;;;;;;;;;;5030804;28;20037;-63
2023/04/25 13:03:29;;;;;;;17.25;9.80;;;;;;;;;;5018484;28;20026;-62
2023/04/25 13:05:55;;;;;;;15.68;9.95;;;;;;;;;;5014848;28;20459;-62
2023/04/25 13:08:21;;;;;;;16.02;9.63;;;;;;;;;;5015300;28;20026;-60
2023/04/25 13:10:50;;;;;;;16.27;9.77;;;;;;;;;;5014827;28;20025;-62
2023/04/25 13:13:16;;;;;;;;;;;;;;;;;;5015156;28;20108;-61
2023/04/25 13:15:42;;;;;;;15.95;9.43;;;;;;;;;;5014956;28;19912;-61
2023/04/25 13:18:08;;;;;;;15.48;9.40;;;;;;;;;;5004402;28;20061;-63
2023/04/25 13:20:34;;;;;;;17.92;10.20;;;;;;;;;;5014295;28;20387;-61
2023/04/25 13:23:00;;;;;;;15.63;9.68;;;;;;;;;;5028096;28;20022;-58
2023/04/25 13:25:26;;;;;;;15.82;9.65;;;;;;;;;;5034235;28;20532;-62
2023/04/25 13:27:52;;;;;;;19.80;9.43;;;;;;;;;;5017419;28;20109;-62
2023/04/25 13:30:18;;;;;;;16.27;9.80;;;;;;;;;;5034682;28;20026;-63
2023/04/25 13:32:44;;;;;;;15.07;10.20;;;;;;;;;;5035200;28;20025;-60
2023/04/25 13:35:15;;;;;;;15.52;9.88;;;;;;;;;;5034293;28;20026;-60
2023/04/25 13:37:41;;;;;;;17.98;10.50;;;;;;;;;;5019234;28;20037;-58
2023/04/25 13:40:09;;;;;;;15.88;9.63;;;;;;;;;;5014660;28;20022;-62
2023/04/25 13:42:35;;;;;;;19.13;9.90;;;;;;;;;;5010840;28;20053;-61
2023/04/25 13:45:01;;;;;;;16.15;10.40;;;;;;;;;;5012280;28;20065;-62
2023/04/25 13:47:28;;;;;;;16.77;10.10;;;;;;;;;;5015188;28;20029;-62
2023/04/25 13:49:54;;;;;;;18.13;9.60;;;;;;;;;;5006234;28;20030;-66
2023/04/25 13:52:20;;;;;;;18.45;9.80;;;;;;;;;;5014333;28;20029;-63
2023/04/25 13:54:46;;;;;;;17.23;9.77;;;;;;;;;;5010921;28;20061;-60
2023/04/25 13:57:13;;;;;;;18.77;9.60;;;;;;;;;;5014047;28;20014;-61
2023/04/25 13:59:40;;;;;;;16.35;10.57;;;;;;;;;;5014039;28;20119;-62
2023/04/25 14:02:07;;;;;;;15.23;9.20;;;;;;;;;;5013599;28;20451;-55
2023/04/25 14:04:33;;;;;;;16.08;9.85;;;;;;;;;;5013750;28;20021;-59
2023/04/25 14:06:59;;;;;;;19.10;9.95;;;;;;;;;;5013830;28;20106;-60
2023/04/25 14:09:27;;;;;;;17.65;10.00;;;;;;;;;;5013876;28;20430;-60
2023/04/25 14:11:53;;;;;;;16.13;10.20;;;;;;;;;;5013595;28;20043;-60
2023/04/25 14:14:19;;;;;;;16.75;10.20;;;;;;;;;;5011856;28;20375;-61
2023/04/25 14:16:47;;;;;;;19.00;10.48;;;;;;;;;;5012114;28;20056;-60